createdAt,value
2018-05-11T00:01:05.769Z,17.90
2018-05-11T00:03:33.311Z,15.03
2018-05-11T00:06:00.885Z,18.70
2018-05-11T00:08:28.446Z,17.80
2018-05-11T00:10:56.007Z,22.50
2018-05-11T00:13:23.573Z,18.73
2018-05-11T00:15:51.149Z,18.57
2018-05-11T00:18:18.697Z,17.60
2018-05-11T00:20:46.267Z,20.23
2018-05-11T00:23:13.803Z,15.47
2018-05-11T00:25:41.379Z,16.20
2018-05-11T00:28:08.908Z,19.50
2018-05-11T00:30:37.611Z,19.77
2018-05-11T00:33:05.159Z,14.03
2018-05-11T00:35:33.518Z,15.97
2018-05-11T00:38:01.058Z,15.47
2018-05-11T00:40:28.596Z,19.53
2018-05-11T00:42:56.162Z,13.80
2018-05-11T00:45:23.692Z,18.03
2018-05-11T00:47:51.250Z,15.90
2018-05-11T00:50:18.810Z,18.30
2018-05-11T00:52:46.369Z,15.30
2018-05-11T00:55:25.969Z,20.67
2018-05-11T00:57:53.527Z,18.90
2018-05-11T01:00:21.081Z,17.43
2018-05-11T01:02:48.663Z,15.83
2018-05-11T01:05:16.216Z,12.47
2018-05-11T01:07:43.797Z,17.37
2018-05-11T01:10:12.118Z,15.17
2018-05-11T01:12:39.681Z,16.73
2018-05-11T01:15:07.215Z,15.90
2018-05-11T01:17:34.769Z,15.60
2018-05-11T01:20:03.443Z,16.07
2018-05-11T01:22:31.026Z,15.77
2018-05-11T01:24:58.568Z,10.73
2018-05-11T01:27:26.872Z,13.80
2018-05-11T01:29:54.440Z,11.40
2018-05-11T01:32:21.978Z,14.97
2018-05-11T01:34:49.544Z,13.80
2018-05-11T01:37:17.099Z,13.63
2018-05-11T01:39:44.683Z,10.13
2018-05-11T01:42:12.233Z,10.83
2018-05-11T01:44:39.785Z,11.77
2018-05-11T01:47:07.330Z,11.17
2018-05-11T01:49:34.902Z,12.43
2018-05-11T01:52:02.456Z,12.17
2018-05-11T01:54:30.058Z,14.93
2018-05-11T01:56:57.618Z,11.13
2018-05-11T01:59:25.181Z,10.63
2018-05-11T02:01:52.737Z,10.70
2018-05-11T02:04:20.326Z,10.60
2018-05-11T02:06:47.863Z,13.47
2018-05-11T02:09:15.417Z,12.00
2018-05-11T02:11:45.844Z,13.17
2018-05-11T02:14:13.411Z,12.00
2018-05-11T02:16:40.981Z,10.37
2018-05-11T02:19:08.517Z,12.60
2018-05-11T02:21:36.085Z,13.27
2018-05-11T02:24:03.644Z,12.80
2018-05-11T02:26:31.208Z,17.53
2018-05-11T02:28:58.765Z,11.47
2018-05-11T02:31:26.324Z,14.47
2018-05-11T02:33:53.902Z,13.83
2018-05-11T02:36:21.462Z,12.43
2018-05-11T02:38:48.995Z,12.97
2018-05-11T02:41:16.572Z,13.20
2018-05-11T02:43:44.113Z,15.83
2018-05-11T02:46:11.653Z,14.03
2018-05-11T02:48:39.238Z,16.10
2018-05-11T02:51:06.783Z,14.03
2018-05-11T02:53:34.384Z,11.10
2018-05-11T02:56:01.922Z,12.00
2018-05-11T02:58:29.493Z,11.50
2018-05-11T03:00:57.038Z,16.37
2018-05-11T03:03:24.616Z,14.80
2018-05-11T03:05:52.965Z,14.53
2018-05-11T03:08:21.268Z,11.40
2018-05-11T03:10:48.802Z,13.40
2018-05-11T03:13:16.370Z,15.53
2018-05-11T03:15:43.912Z,14.87
2018-05-11T03:18:11.478Z,11.00
2018-05-11T03:20:39.038Z,12.40
2018-05-11T03:23:06.631Z,9.13
2018-05-11T03:25:34.167Z,12.17
2018-05-11T03:28:01.703Z,13.13
2018-05-11T03:30:29.290Z,14.93
2018-05-11T03:32:56.834Z,9.87
2018-05-11T03:35:24.392Z,12.20
2018-05-11T03:37:51.944Z,15.60
2018-05-11T03:40:20.305Z,13.73
2018-05-11T03:42:47.868Z,11.57
2018-05-11T03:45:15.427Z,13.07
2018-05-11T03:47:42.985Z,14.77
2018-05-11T03:50:10.548Z,13.10
2018-05-11T03:52:38.104Z,14.17
2018-05-11T03:55:05.725Z,16.57
2018-05-11T03:57:33.297Z,14.80
2018-05-11T04:00:00.963Z,17.97
2018-05-11T04:02:40.401Z,12.23
2018-05-11T04:05:19.687Z,14.97
2018-05-11T04:07:59.848Z,16.27
2018-05-11T04:10:28.221Z,11.93
2018-05-11T04:12:55.769Z,13.67
2018-05-11T04:15:24.084Z,15.33
2018-05-11T04:17:51.646Z,13.97
2018-05-11T04:20:19.198Z,11.17
2018-05-11T04:22:46.769Z,11.37
2018-05-11T04:25:14.321Z,15.73
2018-05-11T04:27:41.888Z,14.20
2018-05-11T04:30:09.500Z,13.87
2018-05-11T04:32:37.029Z,13.73
2018-05-11T04:35:04.590Z,12.17
2018-05-11T04:37:32.147Z,20.93
2018-05-11T04:39:59.696Z,14.90
2018-05-11T04:42:27.287Z,15.00
2018-05-11T04:44:54.834Z,14.47
2018-05-11T04:47:22.393Z,14.40
2018-05-11T04:49:50.045Z,15.07
2018-05-11T04:52:17.610Z,13.10
2018-05-11T04:54:45.177Z,12.67
2018-05-11T04:57:12.709Z,12.80
2018-05-11T04:59:40.277Z,12.67
2018-05-11T05:02:07.833Z,16.30
2018-05-11T05:04:35.383Z,12.20
2018-05-11T05:07:02.927Z,16.03
2018-05-11T05:09:31.250Z,19.60
2018-05-11T05:11:58.788Z,17.63
2018-05-11T05:14:26.365Z,12.70
2018-05-11T05:16:53.899Z,12.17
2018-05-11T05:19:22.253Z,14.70
2018-05-11T05:21:49.796Z,10.67
2018-05-11T05:24:17.346Z,13.53
2018-05-11T05:26:44.915Z,17.20
2018-05-11T05:29:12.453Z,15.00
2018-05-11T05:31:40.008Z,11.20
2018-05-11T05:34:07.535Z,18.27
2018-05-11T05:36:35.100Z,15.77
2018-05-11T05:39:02.649Z,10.27
2018-05-11T05:41:30.976Z,14.73
2018-05-11T05:43:58.509Z,12.67
2018-05-11T05:46:26.076Z,15.07
2018-05-11T05:48:53.608Z,10.60
2018-05-11T05:51:21.164Z,12.70
2018-05-11T05:53:49.465Z,17.57
2018-05-11T05:56:17.023Z,16.00
2018-05-11T05:58:44.557Z,10.23
2018-05-11T06:01:12.876Z,15.90
2018-05-11T06:03:40.415Z,15.20
2018-05-11T06:06:07.962Z,13.60
2018-05-11T06:08:36.251Z,11.93
2018-05-11T06:11:03.804Z,11.00
2018-05-11T06:13:31.339Z,14.10
2018-05-11T06:15:58.892Z,12.83
2018-05-11T06:18:26.440Z,13.73
2018-05-11T06:20:54.004Z,10.13
2018-05-11T06:23:21.549Z,8.63
2018-05-11T06:25:50.096Z,16.67
2018-05-11T06:28:17.644Z,8.53
2018-05-11T06:30:47.167Z,8.20
2018-05-11T06:33:14.727Z,9.83
2018-05-11T06:35:42.938Z,10.13
2018-05-11T06:38:10.480Z,12.97
2018-05-11T06:40:38.105Z,9.60
2018-05-11T06:43:05.605Z,12.70
2018-05-11T06:45:33.157Z,10.33
2018-05-11T06:48:00.748Z,12.00
2018-05-11T06:50:28.303Z,7.00
2018-05-11T06:52:55.859Z,10.03
2018-05-11T06:55:23.397Z,10.90
2018-05-11T06:57:50.975Z,9.03
2018-05-11T07:00:18.520Z,12.10
2018-05-11T07:02:46.069Z,11.40
2018-05-11T07:05:13.600Z,9.57
2018-05-11T07:07:42.041Z,8.70
2018-05-11T07:10:09.620Z,11.90
2018-05-11T07:12:37.169Z,12.43
2018-05-11T07:15:04.727Z,7.90
2018-05-11T07:17:32.285Z,13.80
2018-05-11T07:19:59.844Z,12.47
2018-05-11T07:22:27.478Z,8.93
2018-05-11T07:24:54.961Z,8.10
2018-05-11T07:27:23.504Z,10.43
2018-05-11T07:29:51.052Z,8.73
2018-05-11T07:32:19.416Z,8.40
2018-05-11T07:34:47.728Z,9.53
2018-05-11T07:37:15.288Z,9.10
2018-05-11T07:39:42.828Z,11.13
2018-05-11T07:42:11.116Z,9.87
2018-05-11T07:44:38.676Z,11.23
2018-05-11T07:47:06.209Z,10.23
2018-05-11T07:49:33.772Z,9.67
2018-05-11T07:52:01.321Z,7.90
2018-05-11T07:54:28.881Z,9.90
2018-05-11T07:56:56.452Z,10.90
2018-05-11T07:59:26.354Z,11.77
2018-05-11T08:01:53.924Z,8.80
2018-05-11T08:04:21.476Z,10.57
2018-05-11T08:06:49.004Z,8.83
2018-05-11T08:09:17.584Z,9.77
2018-05-11T08:11:45.127Z,13.60
2018-05-11T08:14:13.725Z,7.87
2018-05-11T08:16:41.178Z,9.20
2018-05-11T08:19:08.725Z,13.53
2018-05-11T08:21:37.192Z,11.70
2018-05-11T08:24:04.751Z,7.87
2018-05-11T08:26:32.291Z,11.37
2018-05-11T08:28:59.844Z,9.20
2018-05-11T08:31:27.389Z,8.30
2018-05-11T08:33:54.948Z,7.67
2018-05-11T08:36:22.473Z,11.67
2018-05-11T08:38:50.045Z,8.03
2018-05-11T08:41:17.579Z,8.47
2018-05-11T08:43:46.916Z,12.33
2018-05-11T08:46:14.456Z,9.40
2018-05-11T08:48:42.054Z,5.40
2018-05-11T08:51:09.589Z,5.93
2018-05-11T08:53:37.124Z,7.17
2018-05-11T08:56:04.676Z,7.23
2018-05-11T08:58:32.968Z,7.20
2018-05-11T09:01:01.500Z,7.77
2018-05-11T09:03:29.060Z,10.43
2018-05-11T09:05:56.624Z,6.93
2018-05-11T09:08:25.233Z,7.10
2018-05-11T09:10:52.715Z,6.15
2018-05-11T09:13:20.240Z,9.40
2018-05-11T09:15:47.801Z,6.97
2018-05-11T09:18:15.340Z,7.00
2018-05-11T09:20:42.900Z,6.60
2018-05-11T09:23:10.453Z,7.32
2018-05-11T09:25:38.013Z,8.50
2018-05-11T09:28:05.542Z,12.17
2018-05-11T09:30:33.129Z,7.73
2018-05-11T09:33:00.664Z,9.00
2018-05-11T09:35:28.229Z,7.10
2018-05-11T09:37:55.792Z,7.07
2018-05-11T09:40:23.760Z,6.10
2018-05-11T09:42:51.329Z,7.33
2018-05-11T09:45:18.869Z,6.73
2018-05-11T09:47:46.404Z,6.20
2018-05-11T09:50:14.740Z,7.90
2018-05-11T09:52:42.264Z,7.77
2018-05-11T09:55:09.846Z,11.50
2018-05-11T09:57:37.415Z,8.13
2018-05-11T10:00:04.973Z,8.88
2018-05-11T10:02:32.520Z,8.20
2018-05-11T10:05:00.058Z,9.32
2018-05-11T10:07:28.405Z,8.18
2018-05-11T10:09:55.940Z,9.60
2018-05-11T10:12:23.491Z,5.03
2018-05-11T10:14:51.038Z,6.60
2018-05-11T10:17:18.604Z,8.57
2018-05-11T10:19:46.169Z,7.35
2018-05-11T10:22:13.714Z,8.80
2018-05-11T10:24:41.267Z,11.10
2018-05-11T10:27:08.817Z,7.30
2018-05-11T10:29:37.116Z,7.68
2018-05-11T10:32:04.668Z,7.87
2018-05-11T10:34:32.306Z,6.62
2018-05-11T10:36:59.800Z,7.10
2018-05-11T10:39:27.338Z,6.10
2018-05-11T10:41:55.658Z,6.37
2018-05-11T10:44:23.199Z,7.15
2018-05-11T10:46:50.751Z,6.03
2018-05-11T10:49:18.282Z,10.40
2018-05-11T10:51:45.841Z,7.43
2018-05-11T10:54:13.371Z,7.85
2018-05-11T10:56:40.944Z,8.32
2018-05-11T10:59:08.513Z,10.65
2018-05-11T11:01:36.046Z,6.97
2018-05-11T11:04:03.633Z,7.47
2018-05-11T11:06:31.308Z,9.18
2018-05-11T11:08:59.639Z,7.53
2018-05-11T11:11:27.174Z,8.10
2018-05-11T11:13:54.736Z,6.43
2018-05-11T11:16:22.279Z,9.00
2018-05-11T11:18:50.591Z,6.78
2018-05-11T11:21:18.125Z,5.97
2018-05-11T11:23:45.687Z,5.30
2018-05-11T11:26:13.216Z,9.17
2018-05-11T11:28:40.760Z,5.37
2018-05-11T11:31:08.305Z,6.03
2018-05-11T11:33:35.857Z,5.90
2018-05-11T11:36:03.396Z,5.55
2018-05-11T11:38:30.940Z,8.88
2018-05-11T11:40:59.234Z,5.95
2018-05-11T11:43:26.815Z,4.37
2018-05-11T11:45:54.349Z,5.80
2018-05-11T11:48:21.912Z,5.20
2018-05-11T11:50:49.648Z,5.43
2018-05-11T11:53:17.966Z,4.47
2018-05-11T11:55:45.497Z,8.90
2018-05-11T11:58:13.824Z,4.67
2018-05-11T12:00:41.361Z,6.53
2018-05-11T12:03:08.917Z,8.77
2018-05-11T12:05:36.453Z,7.72
2018-05-11T12:08:04.770Z,7.50
2018-05-11T12:10:32.320Z,5.47
2018-05-11T12:12:59.880Z,5.20
2018-05-11T12:15:27.442Z,5.17
2018-05-11T12:17:55.001Z,4.20
2018-05-11T12:20:22.577Z,5.93
2018-05-11T12:22:50.115Z,8.20
2018-05-11T12:25:17.673Z,4.67
2018-05-11T12:27:45.224Z,5.97
2018-05-11T12:30:13.709Z,7.30
2018-05-11T12:32:42.180Z,11.67
2018-05-11T12:35:09.732Z,6.17
2018-05-11T12:37:38.059Z,6.27
2018-05-11T12:40:05.623Z,8.70
2018-05-11T12:42:33.205Z,4.97
2018-05-11T12:45:00.771Z,4.40
2018-05-11T12:47:28.314Z,5.07
2018-05-11T12:49:55.872Z,6.27
2018-05-11T12:52:23.404Z,5.57
2018-05-11T12:54:50.961Z,5.63
2018-05-11T12:57:18.497Z,8.90
2018-05-11T12:59:46.815Z,5.77
2018-05-11T13:02:14.369Z,6.50
2018-05-11T13:04:41.920Z,9.30
2018-05-11T13:07:09.485Z,8.07
2018-05-11T13:09:37.049Z,8.17
2018-05-11T13:12:04.595Z,7.67
2018-05-11T13:14:33.064Z,5.60
2018-05-11T13:17:01.365Z,9.43
2018-05-11T13:19:28.918Z,7.37
2018-05-11T13:21:56.476Z,6.43
2018-05-11T13:24:24.034Z,7.03
2018-05-11T13:26:51.598Z,6.07
2018-05-11T13:29:19.136Z,6.17
2018-05-11T13:31:47.451Z,11.63
2018-05-11T13:34:14.987Z,9.60
2018-05-11T13:36:42.558Z,10.27
2018-05-11T13:39:10.090Z,6.40
2018-05-11T13:41:38.429Z,8.40
2018-05-11T13:44:06.972Z,7.20
2018-05-11T13:46:35.282Z,9.80
2018-05-11T13:49:08.572Z,6.93
2018-05-11T13:51:36.124Z,5.27
2018-05-11T13:54:03.663Z,6.83
2018-05-11T13:56:31.305Z,6.83
2018-05-11T13:58:58.906Z,6.20
2018-05-11T14:01:26.443Z,6.63
2018-05-11T14:03:53.971Z,4.60
2018-05-11T14:06:21.528Z,7.10
2018-05-11T14:08:49.062Z,6.67
2018-05-11T14:11:16.621Z,6.90
2018-05-11T14:13:44.190Z,8.53
2018-05-11T14:16:12.527Z,10.07
2018-05-11T14:18:40.072Z,7.03
2018-05-11T14:21:07.632Z,6.53
2018-05-11T14:23:35.197Z,5.97
2018-05-11T14:26:03.515Z,11.43
2018-05-11T14:28:31.045Z,8.07
2018-05-11T14:30:58.613Z,5.87
2018-05-11T14:33:26.158Z,7.30
2018-05-11T14:35:53.739Z,6.23
2018-05-11T14:38:21.276Z,6.20
2018-05-11T14:40:48.834Z,6.53
2018-05-11T14:43:17.139Z,8.30
2018-05-11T14:45:44.677Z,4.10
2018-05-11T14:48:12.227Z,5.93
2018-05-11T14:50:40.513Z,7.17
2018-05-11T14:53:08.180Z,13.50
2018-05-11T14:55:35.644Z,6.57
2018-05-11T14:58:03.200Z,6.20
2018-05-11T15:00:30.768Z,6.60
2018-05-11T15:02:58.346Z,7.53
2018-05-11T15:05:25.876Z,6.20
2018-05-11T15:07:53.467Z,6.57
2018-05-11T15:10:21.003Z,6.83
2018-05-11T15:12:48.581Z,4.30
2018-05-11T15:15:16.117Z,6.37
2018-05-11T15:17:43.689Z,5.33
2018-05-11T15:20:11.244Z,9.67
2018-05-11T15:22:38.809Z,7.40
2018-05-11T15:25:06.363Z,7.50
2018-05-11T15:27:33.920Z,7.23
2018-05-11T15:30:01.513Z,6.33
2018-05-11T15:32:29.073Z,7.00
2018-05-11T15:34:56.624Z,6.25
2018-05-11T15:37:24.171Z,5.77
2018-05-11T15:39:51.709Z,6.23
2018-05-11T15:42:20.233Z,4.40
2018-05-11T15:44:47.763Z,6.55
2018-05-11T15:47:15.456Z,4.93
2018-05-11T15:49:42.994Z,9.07
2018-05-11T15:52:11.478Z,6.30
2018-05-11T15:54:39.024Z,9.93
2018-05-11T15:57:06.609Z,6.07
2018-05-11T15:59:34.136Z,7.70
2018-05-11T16:02:02.425Z,7.03
2018-05-11T16:04:30.728Z,7.10
2018-05-11T16:06:58.289Z,7.77
2018-05-11T16:09:25.834Z,5.07
2018-05-11T16:11:53.512Z,6.47
2018-05-11T16:14:21.048Z,5.33
2018-05-11T16:16:48.593Z,5.97
2018-05-11T16:19:16.902Z,6.27
2018-05-11T16:21:44.471Z,5.20
2018-05-11T16:24:12.023Z,4.90
2018-05-11T16:26:39.557Z,5.97
2018-05-11T16:29:07.899Z,6.67
2018-05-11T16:31:35.433Z,5.70
2018-05-11T16:34:02.999Z,8.40
2018-05-11T16:36:30.549Z,4.17
2018-05-11T16:38:58.823Z,6.60
2018-05-11T16:41:26.378Z,6.90
2018-05-11T16:43:53.948Z,7.87
2018-05-11T16:46:21.508Z,6.70
2018-05-11T16:48:49.072Z,5.60
2018-05-11T16:51:17.477Z,4.80
2018-05-11T16:53:45.833Z,6.77
2018-05-11T16:56:13.388Z,9.20
2018-05-11T16:58:40.943Z,6.37
2018-05-11T17:01:08.507Z,4.33
2018-05-11T17:03:36.062Z,5.73
2018-05-11T17:06:03.630Z,7.73
2018-05-11T17:08:31.186Z,8.10
2018-05-11T17:10:58.730Z,6.23
2018-05-11T17:13:26.261Z,6.83
2018-05-11T17:15:53.814Z,9.27
2018-05-11T17:18:22.142Z,5.13
2018-05-11T17:20:50.426Z,5.27
2018-05-11T17:23:17.979Z,4.77
2018-05-11T17:25:45.530Z,5.20
2018-05-11T17:28:13.074Z,5.57
2018-05-11T17:30:41.398Z,6.23
2018-05-11T17:33:08.939Z,5.67
2018-05-11T17:35:36.491Z,5.00
2018-05-11T17:38:04.041Z,5.10
2018-05-11T17:40:31.603Z,4.07
2018-05-11T17:42:59.189Z,5.20
2018-05-11T17:45:26.742Z,5.40
2018-05-11T17:47:54.288Z,6.30
2018-05-11T17:50:21.845Z,4.17
2018-05-11T17:52:49.409Z,5.83
2018-05-11T17:55:16.971Z,4.13
2018-05-11T17:57:44.550Z,4.70
2018-05-11T18:00:12.212Z,5.90
2018-05-11T18:02:39.776Z,4.13
2018-05-11T18:05:07.320Z,4.47
2018-05-11T18:07:34.865Z,5.47
2018-05-11T18:10:03.298Z,6.60
2018-05-11T18:12:31.529Z,6.70
2018-05-11T18:14:59.102Z,3.70
2018-05-11T18:17:26.653Z,4.93
2018-05-11T18:19:54.216Z,6.70
2018-05-11T18:22:21.768Z,6.73
2018-05-11T18:24:49.324Z,6.63
2018-05-11T18:27:17.656Z,5.13
2018-05-11T18:29:45.193Z,5.23
2018-05-11T18:32:12.753Z,11.03
2018-05-11T18:34:40.290Z,5.23
2018-05-11T18:37:07.851Z,5.63
2018-05-11T18:39:35.452Z,7.83
2018-05-11T18:42:02.990Z,5.07
2018-05-11T18:44:30.540Z,6.37
2018-05-11T18:46:58.241Z,5.83
2018-05-11T18:49:25.670Z,6.00
2018-05-11T18:51:53.335Z,5.43
2018-05-11T18:54:21.089Z,5.90
2018-05-11T18:56:48.466Z,6.47
2018-05-11T18:59:16.005Z,7.37
2018-05-11T19:01:43.633Z,5.93
2018-05-11T19:04:11.239Z,5.60
2018-05-11T19:06:38.808Z,7.53
2018-05-11T19:09:06.369Z,5.37
2018-05-11T19:11:33.936Z,4.67
2018-05-11T19:14:01.477Z,6.80
2018-05-11T19:16:29.039Z,8.17
2018-05-11T19:18:56.578Z,5.93
2018-05-11T19:21:24.144Z,5.77
2018-05-11T19:23:51.691Z,4.87
2018-05-11T19:26:20.029Z,5.57
2018-05-11T19:28:47.764Z,7.60
2018-05-11T19:31:15.324Z,8.03
2018-05-11T19:33:42.850Z,5.50
2018-05-11T19:36:11.177Z,8.20
2018-05-11T19:38:38.721Z,6.83
2018-05-11T19:41:06.245Z,5.33
2018-05-11T19:43:34.573Z,6.80
2018-05-11T19:46:02.106Z,5.23
2018-05-11T19:48:29.678Z,5.97
2018-05-11T19:50:57.242Z,4.17
2018-05-11T19:53:24.808Z,5.20
2018-05-11T19:55:52.390Z,7.27
2018-05-11T19:58:19.949Z,5.53
2018-05-11T20:00:47.485Z,6.10
2018-05-11T20:03:15.029Z,6.07
2018-05-11T20:05:42.600Z,6.57
2018-05-11T20:08:10.458Z,7.33
2018-05-11T20:10:37.982Z,6.20
2018-05-11T20:13:06.311Z,6.93
2018-05-11T20:15:33.848Z,7.83
2018-05-11T20:18:01.409Z,5.90
2018-05-11T20:20:28.940Z,6.27
2018-05-11T20:22:57.265Z,6.93
2018-05-11T20:25:24.804Z,6.77
2018-05-11T20:27:52.385Z,6.63
2018-05-11T20:30:19.944Z,12.77
2018-05-11T20:32:47.540Z,6.07
2018-05-11T20:35:15.077Z,8.17
2018-05-11T20:37:42.670Z,6.57
2018-05-11T20:40:10.212Z,9.27
2018-05-11T20:42:37.768Z,9.77
2018-05-11T20:45:05.310Z,6.90
2018-05-11T20:47:32.867Z,6.63
2018-05-11T20:50:00.425Z,7.40
2018-05-11T20:52:28.008Z,11.87
2018-05-11T20:54:55.548Z,5.57
2018-05-11T20:57:23.112Z,7.03
2018-05-11T20:59:50.693Z,5.90
2018-05-11T21:02:18.219Z,6.33
2018-05-11T21:04:45.793Z,9.60
2018-05-11T21:07:13.337Z,8.73
2018-05-11T21:09:40.913Z,10.90
2018-05-11T21:12:08.440Z,12.10
2018-05-11T21:14:36.790Z,8.53
2018-05-11T21:17:04.347Z,7.17
2018-05-11T21:19:31.902Z,6.47
2018-05-11T21:21:59.438Z,8.87
2018-05-11T21:24:26.994Z,11.70
2018-05-11T21:26:54.516Z,6.13
2018-05-11T21:29:22.101Z,6.67
2018-05-11T21:31:49.635Z,8.20
2018-05-11T21:34:17.961Z,5.87
2018-05-11T21:36:45.486Z,6.70
2018-05-11T21:39:13.951Z,7.80
2018-05-11T21:41:43.257Z,7.13
2018-05-11T21:44:11.567Z,5.70
2018-05-11T21:46:39.101Z,5.07
2018-05-11T21:49:07.421Z,8.60
2018-05-11T21:51:34.961Z,9.27
2018-05-11T21:54:02.522Z,9.37
2018-05-11T21:56:30.071Z,6.13
2018-05-11T22:00:24.543Z,8.23
2018-05-11T22:02:52.828Z,7.37
2018-05-11T22:05:21.144Z,6.07
2018-05-11T22:07:48.696Z,7.63
2018-05-11T22:10:16.252Z,5.60
2018-05-11T22:12:43.791Z,5.97
2018-05-11T22:15:12.111Z,6.07
2018-05-11T22:17:39.642Z,9.03
2018-05-11T22:20:07.199Z,8.00
2018-05-11T22:22:34.728Z,7.80
2018-05-11T22:25:02.303Z,7.10
2018-05-11T22:27:30.609Z,8.23
2018-05-11T22:29:58.160Z,6.97
2018-05-11T22:32:25.727Z,6.73
2018-05-11T22:34:53.339Z,7.57
2018-05-11T22:37:20.877Z,7.77
2018-05-11T22:39:49.200Z,8.47
2018-05-11T22:42:17.497Z,8.30
2018-05-11T22:44:45.059Z,9.60
2018-05-11T22:47:12.606Z,8.13
2018-05-11T22:49:40.187Z,7.53
2018-05-11T22:52:07.710Z,8.03
2018-05-11T22:54:36.045Z,10.97
2018-05-11T22:57:03.580Z,7.47
2018-05-11T22:59:31.111Z,9.57
2018-05-11T23:01:59.446Z,9.17
2018-05-11T23:04:27.761Z,7.27
2018-05-11T23:06:55.328Z,8.57
2018-05-11T23:09:23.629Z,8.57
2018-05-11T23:11:51.188Z,8.03
2018-05-11T23:14:18.728Z,10.10
2018-05-11T23:16:47.057Z,11.23
2018-05-11T23:19:15.351Z,12.87
2018-05-11T23:21:42.915Z,7.97
2018-05-11T23:24:10.459Z,8.93
2018-05-11T23:26:38.016Z,7.80
2018-05-11T23:29:05.551Z,8.53
2018-05-11T23:31:33.122Z,7.17
2018-05-11T23:34:00.653Z,7.27
2018-05-11T23:36:28.970Z,9.57
2018-05-11T23:38:56.507Z,9.60
2018-05-11T23:41:24.053Z,19.13
2018-05-11T23:43:51.588Z,8.67
2018-05-11T23:46:19.185Z,9.87
2018-05-11T23:48:46.711Z,9.67
2018-05-11T23:51:14.279Z,11.50
2018-05-11T23:53:42.588Z,12.30
2018-05-11T23:56:10.180Z,12.20
2018-05-11T23:58:37.708Z,11.03
